sensor_id;sensor_type;location;lat;lon;timestamp;pressure;altitude;pressure_sealevel;temperature;humidity
30856;BME280;17570;0.000;0.000;2023-01-25T00:02:01;98385.23;;;11.56;39.82
30856;BME280;17570;0.000;0.000;2023-01-25T00:04:29;98388.94;;;11.52;39.75
30856;BME280;17570;0.000;0.000;2023-01-25T00:06:56;98390.80;;;11.49;39.67
30856;BME280;17570;0.000;0.000;2023-01-25T00:09:24;98386.44;;;11.50;39.68
30856;BME280;17570;0.000;0.000;2023-01-25T00:11:51;98384.11;;;11.60;39.32
30856;BME280;17570;0.000;0.000;2023-01-25T00:14:20;98384.31;;;11.71;39.38
30856;BME280;17570;0.000;0.000;2023-01-25T00:16:48;98383.39;;;11.58;39.27
30856;BME280;17570;0.000;0.000;2023-01-25T00:19:16;98384.05;;;11.61;39.30
30856;BME280;17570;0.000;0.000;2023-01-25T00:21:44;98391.74;;;11.63;39.44
30856;BME280;17570;0.000;0.000;2023-01-25T00:24:11;98385.05;;;11.59;39.37
30856;BME280;17570;0.000;0.000;2023-01-25T00:26:40;98394.90;;;11.54;39.27
30856;BME280;17570;0.000;0.000;2023-01-25T00:29:14;98390.98;;;11.46;39.51
30856;BME280;17570;0.000;0.000;2023-01-25T00:36:55;98390.80;;;11.35;39.81
30856;BME280;17570;0.000;0.000;2023-01-25T00:39:24;98395.17;;;11.35;39.74
30856;BME280;17570;0.000;0.000;2023-01-25T00:41:52;98387.75;;;11.43;39.34
30856;BME280;17570;0.000;0.000;2023-01-25T00:44:20;98384.59;;;11.38;39.45
30856;BME280;17570;0.000;0.000;2023-01-25T00:46:47;98382.17;;;11.35;39.83
30856;BME280;17570;0.000;0.000;2023-01-25T00:49:19;98376.97;;;11.49;39.08
30856;BME280;17570;0.000;0.000;2023-01-25T00:51:44;98368.72;;;11.57;39.30
30856;BME280;17570;0.000;0.000;2023-01-25T00:54:12;98377.15;;;11.60;39.21
30856;BME280;17570;0.000;0.000;2023-01-25T00:56:39;98380.13;;;11.54;39.35
30856;BME280;17570;0.000;0.000;2023-01-25T00:59:08;98379.47;;;11.50;39.32
30856;BME280;17570;0.000;0.000;2023-01-25T01:01:36;98381.52;;;11.45;39.45
30856;BME280;17570;0.000;0.000;2023-01-25T01:04:03;98381.52;;;11.45;39.17
30856;BME280;17570;0.000;0.000;2023-01-25T01:06:31;98379.40;;;11.38;39.42
30856;BME280;17570;0.000;0.000;2023-01-25T01:09:00;98375.10;;;11.51;39.40
30856;BME280;17570;0.000;0.000;2023-01-25T01:11:28;98372.14;;;11.71;38.83
30856;BME280;17570;0.000;0.000;2023-01-25T01:13:57;98366.67;;;11.62;39.06
30856;BME280;17570;0.000;0.000;2023-01-25T01:16:25;98366.67;;;11.62;39.16
30856;BME280;17570;0.000;0.000;2023-01-25T01:18:53;98369.34;;;11.60;39.14
30856;BME280;17570;0.000;0.000;2023-01-25T01:21:20;98366.12;;;11.57;38.97
30856;BME280;17570;0.000;0.000;2023-01-25T01:23:48;98363.98;;;11.49;39.36
30856;BME280;17570;0.000;0.000;2023-01-25T01:26:16;98362.37;;;11.61;39.01
30856;BME280;17570;0.000;0.000;2023-01-25T01:28:46;98359.16;;;11.57;38.80
30856;BME280;17570;0.000;0.000;2023-01-25T01:31:15;98353.17;;;11.69;38.85
30856;BME280;17570;0.000;0.000;2023-01-25T01:33:48;98350.03;;;11.64;38.92
30856;BME280;17570;0.000;0.000;2023-01-25T01:36:16;98354.86;;;11.56;39.27
30856;BME280;17570;0.000;0.000;2023-01-25T01:38:44;98350.88;;;11.50;39.21
30856;BME280;17570;0.000;0.000;2023-01-25T01:41:12;98354.13;;;11.40;39.14
30856;BME280;17570;0.000;0.000;2023-01-25T01:43:40;98347.82;;;11.44;39.19
30856;BME280;17570;0.000;0.000;2023-01-25T01:46:11;98355.52;;;11.45;38.92
30856;BME280;17570;0.000;0.000;2023-01-25T01:48:43;98355.61;;;11.58;38.95
30856;BME280;17570;0.000;0.000;2023-01-25T01:53:40;98355.52;;;11.45;38.95
30856;BME280;17570;0.000;0.000;2023-01-25T01:56:10;98360.55;;;11.34;39.24
30856;BME280;17570;0.000;0.000;2023-01-25T01:58:38;98353.58;;;11.35;39.31
30856;BME280;17570;0.000;0.000;2023-01-25T02:01:06;98353.30;;;11.54;39.11
30856;BME280;17570;0.000;0.000;2023-01-25T02:03:33;98354.22;;;11.67;38.90
30856;BME280;17570;0.000;0.000;2023-01-25T02:06:09;98351.62;;;11.67;38.81
30856;BME280;17570;0.000;0.000;2023-01-25T02:08:37;98351.69;;;11.65;38.67
30856;BME280;17570;0.000;0.000;2023-01-25T02:11:07;98348.82;;;11.56;38.90
30856;BME280;17570;0.000;0.000;2023-01-25T02:13:35;98351.80;;;11.49;39.01
30856;BME280;17570;0.000;0.000;2023-01-25T02:16:04;98351.91;;;11.48;38.91
30856;BME280;17570;0.000;0.000;2023-01-25T02:18:33;98350.04;;;11.50;38.84
30856;BME280;17570;0.000;0.000;2023-01-25T02:21:02;98346.50;;;11.51;38.61
30856;BME280;17570;0.000;0.000;2023-01-25T02:23:35;98337.96;;;11.63;38.54
30856;BME280;17570;0.000;0.000;2023-01-25T02:26:03;98344.38;;;11.58;38.57
30856;BME280;17570;0.000;0.000;2023-01-25T02:31:01;98333.70;;;11.62;38.62
30856;BME280;17570;0.000;0.000;2023-01-25T02:33:29;98338.23;;;11.73;38.38
30856;BME280;17570;0.000;0.000;2023-01-25T02:36:11;98335.08;;;11.68;38.39
30856;BME280;17570;0.000;0.000;2023-01-25T02:38:28;98332.48;;;11.68;38.46
30856;BME280;17570;0.000;0.000;2023-01-25T02:40:58;98333.88;;;11.59;38.51
30856;BME280;17570;0.000;0.000;2023-01-25T02:43:28;98332.59;;;11.52;38.55
30856;BME280;17570;0.000;0.000;2023-01-25T02:46:00;98333.43;;;11.53;38.41
30856;BME280;17570;0.000;0.000;2023-01-25T02:48:28;98327.30;;;11.54;38.37
30856;BME280;17570;0.000;0.000;2023-01-25T02:50:55;98333.50;;;11.51;38.37
30856;BME280;17570;0.000;0.000;2023-01-25T02:53:23;98327.68;;;11.47;38.54
30856;BME280;17570;0.000;0.000;2023-01-25T02:55:50;98316.23;;;11.50;38.60
30856;BME280;17570;0.000;0.000;2023-01-25T02:58:18;98323.02;;;11.67;38.31
30856;BME280;17570;0.000;0.000;2023-01-25T03:00:46;98323.02;;;11.67;38.38
30856;BME280;17570;0.000;0.000;2023-01-25T03:03:13;98319.66;;;11.65;38.40
30856;BME280;17570;0.000;0.000;2023-01-25T03:05:41;98314.66;;;11.62;38.55
30856;BME280;17570;0.000;0.000;2023-01-25T03:08:09;98317.07;;;11.50;38.56
30856;BME280;17570;0.000;0.000;2023-01-25T03:10:37;98316.73;;;11.42;38.59
30856;BME280;17570;0.000;0.000;2023-01-25T03:13:05;98323.22;;;11.35;38.73
30856;BME280;17570;0.000;0.000;2023-01-25T03:15:32;98321.45;;;11.36;38.58
30856;BME280;17570;0.000;0.000;2023-01-25T03:18:01;98322.92;;;11.54;38.62
30856;BME280;17570;0.000;0.000;2023-01-25T03:20:28;98315.94;;;11.69;38.24
30856;BME280;17570;0.000;0.000;2023-01-25T03:22:56;98317.81;;;11.67;38.25
30856;BME280;17570;0.000;0.000;2023-01-25T03:25:23;98323.19;;;11.64;38.33
30856;BME280;17570;0.000;0.000;2023-01-25T03:27:53;98317.98;;;11.64;38.43
30856;BME280;17570;0.000;0.000;2023-01-25T03:30:21;98328.41;;;11.49;38.43
30856;BME280;17570;0.000;0.000;2023-01-25T03:32:49;98318.19;;;11.46;38.67
30856;BME280;17570;0.000;0.000;2023-01-25T03:35:18;98321.33;;;11.52;38.84
30856;BME280;17570;0.000;0.000;2023-01-25T03:37:46;98320.30;;;11.68;38.39
30856;BME280;17570;0.000;0.000;2023-01-25T03:40:14;98320.59;;;11.64;38.45
30856;BME280;17570;0.000;0.000;2023-01-25T03:42:43;98314.01;;;11.58;38.03
30856;BME280;17570;0.000;0.000;2023-01-25T03:45:11;98318.67;;;11.39;38.61
30856;BME280;17570;0.000;0.000;2023-01-25T03:47:40;98316.13;;;11.52;38.42
30856;BME280;17570;0.000;0.000;2023-01-25T03:50:08;98313.20;;;11.43;38.62
30856;BME280;17570;0.000;0.000;2023-01-25T03:52:41;98316.89;;;11.54;38.51
30856;BME280;17570;0.000;0.000;2023-01-25T03:55:10;98321.53;;;11.63;38.69
30856;BME280;17570;0.000;0.000;2023-01-25T03:57:39;98323.58;;;11.58;38.72
30856;BME280;17570;0.000;0.000;2023-01-25T04:00:07;98326.55;;;11.37;38.71
30856;BME280;17570;0.000;0.000;2023-01-25T04:02:49;98322.66;;;11.44;38.52
30856;BME280;17570;0.000;0.000;2023-01-25T04:05:15;98321.83;;;11.30;38.82
30856;BME280;17570;0.000;0.000;2023-01-25T04:07:43;98325.37;;;11.29;38.91
30856;BME280;17570;0.000;0.000;2023-01-25T04:10:11;98327.68;;;11.47;38.76
30856;BME280;17570;0.000;0.000;2023-01-25T04:12:41;98325.63;;;11.53;38.94
30856;BME280;17570;0.000;0.000;2023-01-25T04:15:09;98321.16;;;11.55;38.89
30856;BME280;17570;0.000;0.000;2023-01-25T04:17:36;98324.80;;;11.52;38.74
30856;BME280;17570;0.000;0.000;2023-01-25T04:20:06;98329.41;;;11.47;38.57
30856;BME280;17570;0.000;0.000;2023-01-25T04:22:35;98315.86;;;11.42;38.98
30856;BME280;17570;0.000;0.000;2023-01-25T04:25:03;98320.61;;;11.49;38.64
30856;BME280;17570;0.000;0.000;2023-01-25T04:27:31;98311.81;;;11.38;38.70
30856;BME280;17570;0.000;0.000;2023-01-25T04:30:01;98321.81;;;11.58;38.51
30856;BME280;17570;0.000;0.000;2023-01-25T04:32:29;98319.31;;;11.57;38.78
30856;BME280;17570;0.000;0.000;2023-01-25T04:34:57;98321.81;;;11.58;38.62
30856;BME280;17570;0.000;0.000;2023-01-25T04:37:26;98326.36;;;11.55;38.53
30856;BME280;17570;0.000;0.000;2023-01-25T04:39:55;98325.80;;;11.49;38.66
30856;BME280;17570;0.000;0.000;2023-01-25T04:42:23;98323.94;;;11.52;38.70
30856;BME280;17570;0.000;0.000;2023-01-25T04:44:52;98319.11;;;11.60;38.83
30856;BME280;17570;0.000;0.000;2023-01-25T04:47:20;98323.48;;;11.45;38.57
30856;BME280;17570;0.000;0.000;2023-01-25T04:49:48;98321.55;;;11.34;38.66
30856;BME280;17570;0.000;0.000;2023-01-25T04:52:17;98324.41;;;11.58;38.74
30856;BME280;17570;0.000;0.000;2023-01-25T04:54:44;98324.78;;;11.66;38.52
30856;BME280;17570;0.000;0.000;2023-01-25T04:57:12;98325.14;;;11.60;38.58
30856;BME280;17570;0.000;0.000;2023-01-25T04:59:41;98323.37;;;11.61;38.60
30856;BME280;17570;0.000;0.000;2023-01-25T05:02:09;98321.27;;;11.53;38.94
30856;BME280;17570;0.000;0.000;2023-01-25T05:04:37;98321.53;;;11.63;39.43
30856;BME280;17570;0.000;0.000;2023-01-25T05:07:04;98321.34;;;11.66;39.51
30856;BME280;17570;0.000;0.000;2023-01-25T05:09:32;98324.75;;;11.81;39.41
30856;BME280;17570;0.000;0.000;2023-01-25T05:12:01;98321.61;;;11.75;39.39
30856;BME280;17570;0.000;0.000;2023-01-25T05:14:30;98317.98;;;11.64;39.59
30856;BME280;17570;0.000;0.000;2023-01-25T05:16:58;98316.33;;;11.63;39.61
30856;BME280;17570;0.000;0.000;2023-01-25T05:19:26;98314.84;;;11.59;39.44
30856;BME280;17570;0.000;0.000;2023-01-25T05:21:58;98318.55;;;11.55;39.25
30856;BME280;17570;0.000;0.000;2023-01-25T05:24:31;98318.55;;;11.55;39.25
30856;BME280;17570;0.000;0.000;2023-01-25T05:27:01;98316.23;;;11.50;39.23
30856;BME280;17570;0.000;0.000;2023-01-25T05:29:47;98311.42;;;11.44;39.19
30856;BME280;17570;0.000;0.000;2023-01-25T05:32:16;98312.44;;;11.27;39.46
30856;BME280;17570;0.000;0.000;2023-01-25T05:34:43;98309.55;;;11.46;39.13
30856;BME280;17570;0.000;0.000;2023-01-25T05:37:12;98302.25;;;11.38;38.99
30856;BME280;17570;0.000;0.000;2023-01-25T05:39:41;98318.01;;;11.49;39.24
30856;BME280;17570;0.000;0.000;2023-01-25T05:42:13;98316.06;;;11.53;39.13
30856;BME280;17570;0.000;0.000;2023-01-25T05:44:38;98324.14;;;11.48;39.14
30856;BME280;17570;0.000;0.000;2023-01-25T05:47:09;98322.28;;;11.36;39.00
30856;BME280;17570;0.000;0.000;2023-01-25T05:49:36;98338.98;;;11.32;39.28
30856;BME280;17570;0.000;0.000;2023-01-25T05:52:04;98334.63;;;11.33;39.33
30856;BME280;17570;0.000;0.000;2023-01-25T05:54:32;98330.84;;;11.38;39.20
30856;BME280;17570;0.000;0.000;2023-01-25T05:57:01;98327.69;;;11.33;39.41
30856;BME280;17570;0.000;0.000;2023-01-25T05:59:29;98330.35;;;11.46;39.28
30856;BME280;17570;0.000;0.000;2023-01-25T06:01:57;98336.03;;;11.53;39.04
30856;BME280;17570;0.000;0.000;2023-01-25T06:04:26;98331.84;;;11.50;39.07
30856;BME280;17570;0.000;0.000;2023-01-25T06:06:54;98333.23;;;11.41;38.89
30856;BME280;17570;0.000;0.000;2023-01-25T06:09:24;98335.28;;;11.36;39.13
30856;BME280;17570;0.000;0.000;2023-01-25T06:11:52;98336.88;;;11.39;39.11
30856;BME280;17570;0.000;0.000;2023-01-25T06:14:21;98327.30;;;11.39;39.04
30856;BME280;17570;0.000;0.000;2023-01-25T06:16:49;98337.22;;;11.47;39.06
30856;BME280;17570;0.000;0.000;2023-01-25T06:19:25;98334.63;;;11.61;38.92
30856;BME280;17570;0.000;0.000;2023-01-25T06:22:03;98329.89;;;11.54;38.94
30856;BME280;17570;0.000;0.000;2023-01-25T06:24:33;98324.22;;;11.47;39.09
30856;BME280;17570;0.000;0.000;2023-01-25T06:27:00;98327.75;;;11.46;38.80
30856;BME280;17570;0.000;0.000;2023-01-25T06:29:28;98335.09;;;11.54;38.69
30856;BME280;17570;0.000;0.000;2023-01-25T06:31:55;98336.86;;;11.53;38.33
30856;BME280;17570;0.000;0.000;2023-01-25T06:34:24;98339.91;;;11.60;38.52
30856;BME280;17570;0.000;0.000;2023-01-25T06:36:52;98332.76;;;11.63;38.36
30856;BME280;17570;0.000;0.000;2023-01-25T06:39:20;98329.22;;;11.64;38.62
30856;BME280;17570;0.000;0.000;2023-01-25T06:41:47;98334.63;;;11.61;38.50
30856;BME280;17570;0.000;0.000;2023-01-25T06:44:15;98333.98;;;11.58;38.53
30856;BME280;17570;0.000;0.000;2023-01-25T06:46:42;98341.02;;;11.56;38.31
30856;BME280;17570;0.000;0.000;2023-01-25T06:49:10;98331.73;;;11.52;38.50
30856;BME280;17570;0.000;0.000;2023-01-25T06:51:37;98333.61;;;11.35;38.31
30856;BME280;17570;0.000;0.000;2023-01-25T06:54:05;98336.94;;;11.52;38.36
30856;BME280;17570;0.000;0.000;2023-01-25T06:56:32;98340.58;;;11.49;38.35
30856;BME280;17570;0.000;0.000;2023-01-25T06:59:00;98342.61;;;11.58;37.96
30856;BME280;17570;0.000;0.000;2023-01-25T07:01:27;98339.25;;;11.56;37.67
30856;BME280;17570;0.000;0.000;2023-01-25T07:03:56;98334.98;;;11.55;37.85
30856;BME280;17570;0.000;0.000;2023-01-25T07:06:25;98334.98;;;11.55;37.96
30856;BME280;17570;0.000;0.000;2023-01-25T07:08:53;98336.38;;;11.46;38.32
30856;BME280;17570;0.000;0.000;2023-01-25T07:11:20;98334.35;;;11.66;37.87
30856;BME280;17570;0.000;0.000;2023-01-25T07:13:48;98342.33;;;11.63;37.82
30856;BME280;17570;0.000;0.000;2023-01-25T07:16:16;98344.45;;;11.56;37.82
30856;BME280;17570;0.000;0.000;2023-01-25T07:18:45;98338.42;;;11.56;37.97
30856;BME280;17570;0.000;0.000;2023-01-25T07:21:13;98339.36;;;11.55;38.18
30856;BME280;17570;0.000;0.000;2023-01-25T07:23:41;98338.14;;;11.60;38.01
30856;BME280;17570;0.000;0.000;2023-01-25T07:26:17;98340.73;;;11.60;38.21
30856;BME280;17570;0.000;0.000;2023-01-25T07:28:45;98339.84;;;11.61;38.11
30856;BME280;17570;0.000;0.000;2023-01-25T07:31:13;98332.39;;;11.55;37.76
30856;BME280;17570;0.000;0.000;2023-01-25T07:33:41;98337.32;;;11.45;38.32
30856;BME280;17570;0.000;0.000;2023-01-25T07:36:09;98342.31;;;11.77;38.00
30856;BME280;17570;0.000;0.000;2023-01-25T07:38:38;98343.42;;;11.73;37.87
30856;BME280;17570;0.000;0.000;2023-01-25T07:41:06;98341.11;;;11.68;38.01
30856;BME280;17570;0.000;0.000;2023-01-25T07:43:35;98342.16;;;11.66;37.85
30856;BME280;17570;0.000;0.000;2023-01-25T07:46:04;98339.55;;;11.66;37.97
30856;BME280;17570;0.000;0.000;2023-01-25T07:48:32;98330.42;;;11.73;37.53
30856;BME280;17570;0.000;0.000;2023-01-25T07:51:00;98338.34;;;11.86;39.45
30856;BME280;17570;0.000;0.000;2023-01-25T07:53:46;98339.82;;;11.90;40.25
30856;BME280;17570;0.000;0.000;2023-01-25T07:56:14;98335.52;;;11.74;41.01
30856;BME280;17570;0.000;0.000;2023-01-25T07:58:41;98332.63;;;11.79;40.59
30856;BME280;17570;0.000;0.000;2023-01-25T08:01:15;98332.48;;;11.82;40.04
30856;BME280;17570;0.000;0.000;2023-01-25T08:03:38;98329.78;;;11.84;39.75
30856;BME280;17570;0.000;0.000;2023-01-25T08:06:05;98327.64;;;11.76;39.59
30856;BME280;17570;0.000;0.000;2023-01-25T08:08:35;98332.30;;;11.71;39.27
30856;BME280;17570;0.000;0.000;2023-01-25T08:11:07;98332.37;;;11.69;39.19
30856;BME280;17570;0.000;0.000;2023-01-25T08:13:34;98335.25;;;11.65;38.93
30856;BME280;17570;0.000;0.000;2023-01-25T08:16:02;98338.61;;;11.67;38.80
30856;BME280;17570;0.000;0.000;2023-01-25T08:18:29;98337.13;;;11.63;38.75
30856;BME280;17570;0.000;0.000;2023-01-25T08:20:59;98342.23;;;11.64;38.77
30856;BME280;17570;0.000;0.000;2023-01-25T08:23:26;98343.34;;;11.60;38.17
30856;BME280;17570;0.000;0.000;2023-01-25T08:25:54;98338.06;;;11.62;38.44
30856;BME280;17570;0.000;0.000;2023-01-25T08:28:22;98342.33;;;11.63;38.85
30856;BME280;17570;0.000;0.000;2023-01-25T08:30:49;98344.55;;;11.83;40.73
30856;BME280;17570;0.000;0.000;2023-01-25T08:33:17;98339.17;;;11.86;40.29
30856;BME280;17570;0.000;0.000;2023-01-25T08:35:53;98341.66;;;11.88;40.38
30856;BME280;17570;0.000;0.000;2023-01-25T08:38:13;98338.34;;;11.86;39.65
30856;BME280;17570;0.000;0.000;2023-01-25T08:40:40;98347.08;;;11.85;39.41
30856;BME280;17570;0.000;0.000;2023-01-25T08:43:08;98339.42;;;11.82;38.70
30856;BME280;17570;0.000;0.000;2023-01-25T08:45:35;98341.02;;;11.84;38.68
30856;BME280;17570;0.000;0.000;2023-01-25T08:48:03;98336.45;;;11.73;38.51
30856;BME280;17570;0.000;0.000;2023-01-25T08:50:31;98339.06;;;11.73;38.39
30856;BME280;17570;0.000;0.000;2023-01-25T08:52:58;98344.47;;;11.70;38.41
30856;BME280;17570;0.000;0.000;2023-01-25T08:55:25;98338.51;;;11.68;38.32
30856;BME280;17570;0.000;0.000;2023-01-25T08:57:53;98338.61;;;11.67;38.36
30856;BME280;17570;0.000;0.000;2023-01-25T09:00:21;98333.41;;;11.67;38.22
30856;BME280;17570;0.000;0.000;2023-01-25T09:02:49;98337.78;;;11.66;38.04
30856;BME280;17570;0.000;0.000;2023-01-25T09:05:16;98328.39;;;11.64;38.16
30856;BME280;17570;0.000;0.000;2023-01-25T09:07:43;98333.88;;;11.59;37.67
30856;BME280;17570;0.000;0.000;2023-01-25T09:10:11;98339.91;;;11.60;38.08
30856;BME280;17570;0.000;0.000;2023-01-25T09:12:38;98334.05;;;11.56;38.06
30856;BME280;17570;0.000;0.000;2023-01-25T09:15:06;98338.24;;;11.59;37.75
30856;BME280;17570;0.000;0.000;2023-01-25T09:17:33;98335.75;;;11.57;37.97
30856;BME280;17570;0.000;0.000;2023-01-25T09:20:03;98334.70;;;11.60;37.78
30856;BME280;17570;0.000;0.000;2023-01-25T09:22:30;98329.72;;;11.57;38.06
30856;BME280;17570;0.000;0.000;2023-01-25T09:24:58;98328.95;;;11.55;37.68
30856;BME280;17570;0.000;0.000;2023-01-25T09:27:25;98325.14;;;11.60;37.63
30856;BME280;17570;0.000;0.000;2023-01-25T09:29:53;98322.82;;;11.56;37.43
30856;BME280;17570;0.000;0.000;2023-01-25T09:32:22;98314.01;;;11.58;37.73
30856;BME280;17570;0.000;0.000;2023-01-25T09:34:51;98307.98;;;11.58;37.41
30856;BME280;17570;0.000;0.000;2023-01-25T09:37:19;98306.31;;;11.57;37.47
30856;BME280;17570;0.000;0.000;2023-01-25T09:39:46;98308.81;;;11.58;37.17
30856;BME280;17570;0.000;0.000;2023-01-25T09:45:17;98299.52;;;11.54;37.17
30856;BME280;17570;0.000;0.000;2023-01-25T09:50:21;98290.08;;;11.39;37.32
30856;BME280;17570;0.000;0.000;2023-01-25T09:55:24;98280.13;;;11.45;37.41
30856;BME280;17570;0.000;0.000;2023-01-25T09:57:51;98287.09;;;11.45;37.05
30856;BME280;17570;0.000;0.000;2023-01-25T10:00:27;98280.13;;;11.45;37.25
30856;BME280;17570;0.000;0.000;2023-01-25T10:03:00;98272.98;;;11.49;37.28
30856;BME280;17570;0.000;0.000;2023-01-25T10:05:27;98275.68;;;11.47;36.96
30856;BME280;17570;0.000;0.000;2023-01-25T10:08:02;98264.52;;;11.45;37.25
30856;BME280;17570;0.000;0.000;2023-01-25T10:10:34;98262.75;;;11.46;37.15
30856;BME280;17570;0.000;0.000;2023-01-25T10:13:02;98257.55;;;11.46;37.39
30856;BME280;17570;0.000;0.000;2023-01-25T10:15:32;98255.23;;;11.41;37.12
30856;BME280;17570;0.000;0.000;2023-01-25T10:18:00;98254.13;;;11.45;37.16
30856;BME280;17570;0.000;0.000;2023-01-25T10:20:47;98249.76;;;11.46;37.19
30856;BME280;17570;0.000;0.000;2023-01-25T10:23:07;98248.75;;;11.48;37.21
30856;BME280;17570;0.000;0.000;2023-01-25T10:25:39;98237.52;;;11.48;37.27
30856;BME280;17570;0.000;0.000;2023-01-25T10:30:57;98228.02;;;11.47;37.36
30856;BME280;17570;0.000;0.000;2023-01-25T10:33:21;98236.32;;;11.39;37.39
30856;BME280;17570;0.000;0.000;2023-01-25T10:35:49;98232.20;;;11.49;37.51
30856;BME280;17570;0.000;0.000;2023-01-25T10:38:27;98231.81;;;11.56;37.25
30856;BME280;17570;0.000;0.000;2023-01-25T10:41:00;98213.72;;;11.54;36.83
30856;BME280;17570;0.000;0.000;2023-01-25T10:43:24;98212.05;;;11.53;37.05
30856;BME280;17570;0.000;0.000;2023-01-25T10:45:53;98217.04;;;11.56;37.31
30856;BME280;17570;0.000;0.000;2023-01-25T10:48:22;98203.96;;;11.58;37.15
30856;BME280;17570;0.000;0.000;2023-01-25T10:50:50;98204.91;;;11.57;37.10
30856;BME280;17570;0.000;0.000;2023-01-25T10:53:23;98201.44;;;11.56;36.87
30856;BME280;17570;0.000;0.000;2023-01-25T10:58:34;98198.12;;;11.54;36.82
30856;BME280;17570;0.000;0.000;2023-01-25T11:01:06;98182.99;;;11.46;37.19
30856;BME280;17570;0.000;0.000;2023-01-25T11:03:35;98185.95;;;11.55;36.98
30856;BME280;17570;0.000;0.000;2023-01-25T11:06:03;98178.80;;;11.58;37.12
30856;BME280;17570;0.000;0.000;2023-01-25T11:08:32;98179.73;;;11.57;37.06
30856;BME280;17570;0.000;0.000;2023-01-25T11:13:46;98171.64;;;11.62;36.58
30856;BME280;17570;0.000;0.000;2023-01-25T11:16:16;98171.58;;;11.49;36.85
30856;BME280;17570;0.000;0.000;2023-01-25T11:18:48;98164.61;;;11.49;36.93
30856;BME280;17570;0.000;0.000;2023-01-25T11:21:13;98162.73;;;11.52;36.86
30856;BME280;17570;0.000;0.000;2023-01-25T11:23:43;98154.20;;;11.49;36.75
30856;BME280;17570;0.000;0.000;2023-01-25T11:28:40;98149.48;;;11.42;37.20
30856;BME280;17570;0.000;0.000;2023-01-25T11:31:09;98134.70;;;11.57;36.73
30856;BME280;17570;0.000;0.000;2023-01-25T11:33:37;98141.04;;;11.65;36.73
30856;BME280;17570;0.000;0.000;2023-01-25T11:36:09;98139.30;;;11.66;36.96
30856;BME280;17570;0.000;0.000;2023-01-25T11:38:37;98137.61;;;11.65;36.34
30856;BME280;17570;0.000;0.000;2023-01-25T11:41:10;98142.20;;;11.61;36.40
30856;BME280;17570;0.000;0.000;2023-01-25T11:49:02;98136.63;;;11.80;38.71
30856;BME280;17570;0.000;0.000;2023-01-25T11:51:40;98138.29;;;11.81;38.78
30856;BME280;17570;0.000;0.000;2023-01-25T11:56:58;98127.73;;;11.70;38.21
30856;BME280;17570;0.000;0.000;2023-01-25T11:59:43;98127.02;;;11.68;37.82
30856;BME280;17570;0.000;0.000;2023-01-25T12:05:05;98126.30;;;11.66;37.64
30856;BME280;17570;0.000;0.000;2023-01-25T12:07:38;98123.88;;;11.90;40.86
30856;BME280;17570;0.000;0.000;2023-01-25T12:10:21;98113.39;;;12.04;42.11
30856;BME280;17570;0.000;0.000;2023-01-25T12:12:52;98109.64;;;12.08;42.03
30856;BME280;17570;0.000;0.000;2023-01-25T12:24:02;98116.38;;;11.98;39.25
30856;BME280;17570;0.000;0.000;2023-01-25T12:26:05;98107.14;;;11.94;38.54
30856;BME280;17570;0.000;0.000;2023-01-25T12:28:33;98104.53;;;11.94;38.34
30856;BME280;17570;0.000;0.000;2023-01-25T12:33:41;98098.06;;;11.87;37.59
30856;BME280;17570;0.000;0.000;2023-01-25T12:36:30;98095.57;;;11.85;37.48
30856;BME280;17570;0.000;0.000;2023-01-25T12:43:56;98089.66;;;12.09;39.50
30856;BME280;17570;0.000;0.000;2023-01-25T12:46:41;98086.23;;;12.08;38.76
30856;BME280;17570;0.000;0.000;2023-01-25T12:49:13;98080.27;;;12.06;38.19
30856;BME280;17570;0.000;0.000;2023-01-25T12:51:37;98081.84;;;11.96;38.10
30856;BME280;17570;0.000;0.000;2023-01-25T12:54:11;98080.06;;;11.96;37.57
30856;BME280;17570;0.000;0.000;2023-01-25T12:56:41;98075.80;;;11.95;37.55
30856;BME280;17570;0.000;0.000;2023-01-25T12:59:21;98081.12;;;11.94;37.31
30856;BME280;17570;0.000;0.000;2023-01-25T13:01:48;98075.69;;;11.97;39.72
30856;BME280;17570;0.000;0.000;2023-01-25T13:06:59;98074.24;;;12.06;39.88
30856;BME280;17570;0.000;0.000;2023-01-25T13:10:01;98072.78;;;12.02;39.23
30856;BME280;17570;0.000;0.000;2023-01-25T13:12:04;98070.41;;;11.98;38.44
30856;BME280;17570;0.000;0.000;2023-01-25T13:14:35;98071.63;;;11.93;38.49
30856;BME280;17570;0.000;0.000;2023-01-25T13:19:49;98059.23;;;11.84;37.76
30856;BME280;17570;0.000;0.000;2023-01-25T13:25:05;98050.87;;;11.79;37.84
30856;BME280;17570;0.000;0.000;2023-01-25T13:27:35;98045.45;;;11.69;37.65
30856;BME280;17570;0.000;0.000;2023-01-25T13:35:30;98049.83;;;11.68;36.96
30856;BME280;17570;0.000;0.000;2023-01-25T13:38:01;98056.80;;;11.68;36.58
30856;BME280;17570;0.000;0.000;2023-01-25T13:40:33;98052.32;;;11.57;37.05
30856;BME280;17570;0.000;0.000;2023-01-25T13:42:59;98047.01;;;11.59;36.93
30856;BME280;17570;0.000;0.000;2023-01-25T13:45:29;98051.27;;;11.60;36.61
30856;BME280;17570;0.000;0.000;2023-01-25T13:50:47;98052.41;;;11.56;36.90
30856;BME280;17570;0.000;0.000;2023-01-25T13:55:44;98041.59;;;11.49;37.06
30856;BME280;17570;0.000;0.000;2023-01-25T13:58:19;98045.02;;;11.49;36.72
30856;BME280;17570;0.000;0.000;2023-01-25T14:01:00;98045.02;;;11.49;36.73
30856;BME280;17570;0.000;0.000;2023-01-25T14:03:32;98042.41;;;11.49;36.84
30856;BME280;17570;0.000;0.000;2023-01-25T14:05:59;98035.97;;;11.42;36.71
30856;BME280;17570;0.000;0.000;2023-01-25T14:08:29;98032.31;;;11.45;36.57
30856;BME280;17570;0.000;0.000;2023-01-25T14:10:57;98036.50;;;11.47;36.62
30856;BME280;17570;0.000;0.000;2023-01-25T14:13:24;98029.30;;;11.51;36.47
30856;BME280;17570;0.000;0.000;2023-01-25T14:15:56;98030.24;;;11.50;36.30
30856;BME280;17570;0.000;0.000;2023-01-25T14:18:31;98033.89;;;11.47;36.78
30856;BME280;17570;0.000;0.000;2023-01-25T14:23:37;98025.57;;;11.42;36.63
30856;BME280;17570;0.000;0.000;2023-01-25T14:26:26;98032.62;;;11.40;36.77
30856;BME280;17570;0.000;0.000;2023-01-25T14:28:34;98024.70;;;11.42;36.54
30856;BME280;17570;0.000;0.000;2023-01-25T14:31:01;98033.67;;;11.38;36.53
30856;BME280;17570;0.000;0.000;2023-01-25T14:33:31;98039.25;;;11.32;36.53
30856;BME280;17570;0.000;0.000;2023-01-25T14:36:02;98036.29;;;11.11;37.18
30856;BME280;17570;0.000;0.000;2023-01-25T14:38:32;98041.50;;;11.23;37.10